FMMT

Toamasina Airport

Madagascar
METAR FMMT 140000Z 00000KT 9999 VCSH SCT017 24/24 Q1015
Observed Flight Rules
Dec-14 @ 00:00 UTC (44 minutes ago) Visual Flight Rules
Visibility Clouds
10,000+ meters
  • Scattered at 1,700' AGL
Temperatures Readings
Current 24°C / 75°F
Dewpoint 24°C / 75°F
Humidity 100%
Altimeter 29.97" Hg
Pressure 1015 hPa
Elevation 6
METAR FMMT 140000Z 00000KT 9999 VCSH SCT017 24/24 Q1015
Observed Flight Rules
Dec-14 @ 00:00 UTC
(44 minutes ago)
VFR
Clouds
  • Scattered at 1,700' AGL
Temperature Dewpoint
24°C / 75°F 24°C / 75°F
Humidity Altimeter Pressure
100% 29.97" Hg 1015 hPa